sensor_id;sensor_type;location;lat;lon;timestamp;P1;durP1;ratioP1;P2;durP2;ratioP2
2646;SDS011;1333;50.958;6.770;2023-04-29T00:01:04;9.23;;;6.97;;
2646;SDS011;1333;50.958;6.770;2023-04-29T00:03:30;9.63;;;7.03;;
2646;SDS011;1333;50.958;6.770;2023-04-29T00:05:58;9.00;;;6.43;;
2646;SDS011;1333;50.958;6.770;2023-04-29T00:08:24;9.30;;;7.00;;
2646;SDS011;1333;50.958;6.770;2023-04-29T00:10:50;12.57;;;7.60;;
2646;SDS011;1333;50.958;6.770;2023-04-29T00:13:16;18.23;;;7.47;;
2646;SDS011;1333;50.958;6.770;2023-04-29T00:15:41;9.90;;;7.20;;
2646;SDS011;1333;50.958;6.770;2023-04-29T00:18:07;12.40;;;7.83;;
2646;SDS011;1333;50.958;6.770;2023-04-29T00:20:34;11.90;;;7.50;;
2646;SDS011;1333;50.958;6.770;2023-04-29T00:23:00;14.83;;;8.13;;
2646;SDS011;1333;50.958;6.770;2023-04-29T00:25:25;14.70;;;7.57;;
2646;SDS011;1333;50.958;6.770;2023-04-29T00:27:51;11.83;;;7.80;;
2646;SDS011;1333;50.958;6.770;2023-04-29T00:30:16;9.73;;;7.53;;
2646;SDS011;1333;50.958;6.770;2023-04-29T00:32:42;12.23;;;7.30;;
2646;SDS011;1333;50.958;6.770;2023-04-29T00:35:08;13.13;;;7.83;;
2646;SDS011;1333;50.958;6.770;2023-04-29T00:37:34;12.57;;;7.90;;
2646;SDS011;1333;50.958;6.770;2023-04-29T00:40:00;8.83;;;6.87;;
2646;SDS011;1333;50.958;6.770;2023-04-29T00:42:25;11.67;;;7.20;;
2646;SDS011;1333;50.958;6.770;2023-04-29T00:44:51;12.93;;;8.40;;
2646;SDS011;1333;50.958;6.770;2023-04-29T00:47:17;12.97;;;7.47;;
2646;SDS011;1333;50.958;6.770;2023-04-29T00:49:43;13.73;;;7.33;;
2646;SDS011;1333;50.958;6.770;2023-04-29T00:52:09;11.30;;;8.17;;
2646;SDS011;1333;50.958;6.770;2023-04-29T00:54:35;11.20;;;7.63;;
2646;SDS011;1333;50.958;6.770;2023-04-29T00:57:02;14.90;;;8.00;;
2646;SDS011;1333;50.958;6.770;2023-04-29T00:59:30;12.13;;;7.77;;
2646;SDS011;1333;50.958;6.770;2023-04-29T01:02:00;13.90;;;7.87;;
2646;SDS011;1333;50.958;6.770;2023-04-29T01:04:28;11.30;;;7.67;;
2646;SDS011;1333;50.958;6.770;2023-04-29T01:09:53;13.67;;;6.77;;
2646;SDS011;1333;50.958;6.770;2023-04-29T01:14:56;12.20;;;8.70;;
2646;SDS011;1333;50.958;6.770;2023-04-29T01:17:30;15.97;;;9.30;;
2646;SDS011;1333;50.958;6.770;2023-04-29T01:20:00;15.50;;;9.67;;
2646;SDS011;1333;50.958;6.770;2023-04-29T01:22:26;17.30;;;9.53;;
2646;SDS011;1333;50.958;6.770;2023-04-29T01:24:52;12.47;;;8.83;;
2646;SDS011;1333;50.958;6.770;2023-04-29T01:30:39;17.93;;;10.93;;
2646;SDS011;1333;50.958;6.770;2023-04-29T01:35:29;18.27;;;9.60;;
2646;SDS011;1333;50.958;6.770;2023-04-29T01:38:14;27.30;;;11.67;;
2646;SDS011;1333;50.958;6.770;2023-04-29T01:40:47;19.53;;;10.87;;
2646;SDS011;1333;50.958;6.770;2023-04-29T01:43:23;17.17;;;10.13;;
2646;SDS011;1333;50.958;6.770;2023-04-29T01:45:52;15.93;;;10.83;;
2646;SDS011;1333;50.958;6.770;2023-04-29T01:48:20;19.10;;;12.20;;
2646;SDS011;1333;50.958;6.770;2023-04-29T01:50:46;16.80;;;11.07;;
2646;SDS011;1333;50.958;6.770;2023-04-29T01:53:11;19.30;;;13.50;;
2646;SDS011;1333;50.958;6.770;2023-04-29T01:55:37;22.47;;;13.13;;
2646;SDS011;1333;50.958;6.770;2023-04-29T01:58:02;20.33;;;11.47;;
2646;SDS011;1333;50.958;6.770;2023-04-29T02:00:28;19.90;;;13.53;;
2646;SDS011;1333;50.958;6.770;2023-04-29T02:02:53;21.73;;;12.83;;
2646;SDS011;1333;50.958;6.770;2023-04-29T02:05:19;19.83;;;12.90;;
2646;SDS011;1333;50.958;6.770;2023-04-29T02:07:44;25.37;;;14.10;;
2646;SDS011;1333;50.958;6.770;2023-04-29T02:10:10;17.40;;;11.37;;
2646;SDS011;1333;50.958;6.770;2023-04-29T02:12:36;26.17;;;14.47;;
2646;SDS011;1333;50.958;6.770;2023-04-29T02:15:01;18.60;;;13.20;;
2646;SDS011;1333;50.958;6.770;2023-04-29T02:17:27;24.27;;;13.07;;
2646;SDS011;1333;50.958;6.770;2023-04-29T02:19:52;26.87;;;13.53;;
2646;SDS011;1333;50.958;6.770;2023-04-29T02:22:21;30.70;;;13.73;;
2646;SDS011;1333;50.958;6.770;2023-04-29T02:24:46;25.50;;;14.37;;
2646;SDS011;1333;50.958;6.770;2023-04-29T02:27:12;24.87;;;13.50;;
2646;SDS011;1333;50.958;6.770;2023-04-29T02:29:37;21.47;;;14.27;;
2646;SDS011;1333;50.958;6.770;2023-04-29T02:32:03;25.20;;;12.83;;
2646;SDS011;1333;50.958;6.770;2023-04-29T02:34:29;21.17;;;13.70;;
2646;SDS011;1333;50.958;6.770;2023-04-29T02:36:55;21.70;;;13.20;;
2646;SDS011;1333;50.958;6.770;2023-04-29T02:39:21;19.80;;;13.10;;
2646;SDS011;1333;50.958;6.770;2023-04-29T02:41:47;23.17;;;13.87;;
2646;SDS011;1333;50.958;6.770;2023-04-29T02:44:13;21.93;;;14.17;;
2646;SDS011;1333;50.958;6.770;2023-04-29T02:46:38;23.37;;;12.80;;
2646;SDS011;1333;50.958;6.770;2023-04-29T02:49:09;21.63;;;13.70;;
2646;SDS011;1333;50.958;6.770;2023-04-29T02:51:34;29.17;;;14.13;;
2646;SDS011;1333;50.958;6.770;2023-04-29T02:54:00;30.83;;;16.17;;
2646;SDS011;1333;50.958;6.770;2023-04-29T02:56:26;27.03;;;15.70;;
2646;SDS011;1333;50.958;6.770;2023-04-29T02:58:51;29.17;;;16.67;;
2646;SDS011;1333;50.958;6.770;2023-04-29T03:01:17;31.40;;;16.87;;
2646;SDS011;1333;50.958;6.770;2023-04-29T03:03:42;25.83;;;14.57;;
2646;SDS011;1333;50.958;6.770;2023-04-29T03:06:08;32.80;;;18.00;;
2646;SDS011;1333;50.958;6.770;2023-04-29T03:08:34;33.90;;;18.47;;
2646;SDS011;1333;50.958;6.770;2023-04-29T03:10:59;40.20;;;19.13;;
2646;SDS011;1333;50.958;6.770;2023-04-29T03:13:25;43.30;;;18.57;;
2646;SDS011;1333;50.958;6.770;2023-04-29T03:15:50;32.63;;;17.47;;
2646;SDS011;1333;50.958;6.770;2023-04-29T03:18:16;41.83;;;21.77;;
2646;SDS011;1333;50.958;6.770;2023-04-29T03:20:41;39.80;;;20.43;;
2646;SDS011;1333;50.958;6.770;2023-04-29T03:23:07;38.23;;;20.50;;
2646;SDS011;1333;50.958;6.770;2023-04-29T03:25:32;45.30;;;22.67;;
2646;SDS011;1333;50.958;6.770;2023-04-29T03:27:58;43.53;;;22.57;;
2646;SDS011;1333;50.958;6.770;2023-04-29T03:30:23;47.73;;;23.33;;
2646;SDS011;1333;50.958;6.770;2023-04-29T03:32:49;40.13;;;18.80;;
2646;SDS011;1333;50.958;6.770;2023-04-29T03:35:14;34.30;;;20.67;;
2646;SDS011;1333;50.958;6.770;2023-04-29T03:37:40;39.60;;;23.70;;
2646;SDS011;1333;50.958;6.770;2023-04-29T03:40:08;37.00;;;21.57;;
2646;SDS011;1333;50.958;6.770;2023-04-29T03:42:35;37.93;;;20.57;;
2646;SDS011;1333;50.958;6.770;2023-04-29T03:45:00;46.63;;;21.57;;
2646;SDS011;1333;50.958;6.770;2023-04-29T03:47:26;38.67;;;20.40;;
2646;SDS011;1333;50.958;6.770;2023-04-29T03:49:51;32.53;;;19.30;;
2646;SDS011;1333;50.958;6.770;2023-04-29T03:52:17;37.47;;;18.57;;
2646;SDS011;1333;50.958;6.770;2023-04-29T03:54:42;39.80;;;16.23;;
2646;SDS011;1333;50.958;6.770;2023-04-29T03:57:08;38.67;;;17.03;;
2646;SDS011;1333;50.958;6.770;2023-04-29T03:59:34;36.37;;;17.67;;
2646;SDS011;1333;50.958;6.770;2023-04-29T04:02:00;35.00;;;16.73;;
2646;SDS011;1333;50.958;6.770;2023-04-29T04:04:25;34.73;;;17.47;;
2646;SDS011;1333;50.958;6.770;2023-04-29T04:06:50;31.93;;;15.70;;
2646;SDS011;1333;50.958;6.770;2023-04-29T04:09:16;32.67;;;15.03;;
2646;SDS011;1333;50.958;6.770;2023-04-29T04:11:42;24.77;;;14.90;;
2646;SDS011;1333;50.958;6.770;2023-04-29T04:14:08;28.10;;;14.37;;
2646;SDS011;1333;50.958;6.770;2023-04-29T04:16:33;31.40;;;16.07;;
2646;SDS011;1333;50.958;6.770;2023-04-29T04:18:59;32.53;;;14.50;;
2646;SDS011;1333;50.958;6.770;2023-04-29T04:21:25;22.90;;;14.60;;
2646;SDS011;1333;50.958;6.770;2023-04-29T04:23:51;31.57;;;14.10;;
2646;SDS011;1333;50.958;6.770;2023-04-29T04:26:17;28.43;;;14.00;;
2646;SDS011;1333;50.958;6.770;2023-04-29T04:28:44;32.07;;;15.57;;
2646;SDS011;1333;50.958;6.770;2023-04-29T04:31:10;42.73;;;15.67;;
2646;SDS011;1333;50.958;6.770;2023-04-29T04:33:36;23.80;;;14.07;;
2646;SDS011;1333;50.958;6.770;2023-04-29T04:36:02;24.70;;;14.00;;
2646;SDS011;1333;50.958;6.770;2023-04-29T04:38:27;30.00;;;14.67;;
2646;SDS011;1333;50.958;6.770;2023-04-29T04:40:53;23.27;;;13.10;;
2646;SDS011;1333;50.958;6.770;2023-04-29T04:43:18;25.27;;;13.67;;
2646;SDS011;1333;50.958;6.770;2023-04-29T04:45:44;27.47;;;13.27;;
2646;SDS011;1333;50.958;6.770;2023-04-29T04:48:09;28.70;;;12.47;;
2646;SDS011;1333;50.958;6.770;2023-04-29T04:50:35;30.13;;;13.13;;
2646;SDS011;1333;50.958;6.770;2023-04-29T04:53:01;22.83;;;13.37;;
2646;SDS011;1333;50.958;6.770;2023-04-29T04:55:27;30.63;;;13.87;;
2646;SDS011;1333;50.958;6.770;2023-04-29T04:57:52;24.20;;;12.80;;
2646;SDS011;1333;50.958;6.770;2023-04-29T05:00:18;24.10;;;13.87;;
2646;SDS011;1333;50.958;6.770;2023-04-29T05:02:43;29.20;;;14.60;;
2646;SDS011;1333;50.958;6.770;2023-04-29T05:05:09;25.17;;;12.30;;
2646;SDS011;1333;50.958;6.770;2023-04-29T05:07:34;24.53;;;12.50;;
2646;SDS011;1333;50.958;6.770;2023-04-29T05:10:00;23.10;;;11.83;;
2646;SDS011;1333;50.958;6.770;2023-04-29T05:12:27;25.50;;;12.43;;
2646;SDS011;1333;50.958;6.770;2023-04-29T05:14:54;23.07;;;12.87;;
2646;SDS011;1333;50.958;6.770;2023-04-29T05:17:20;18.70;;;11.10;;
2646;SDS011;1333;50.958;6.770;2023-04-29T05:19:46;19.47;;;10.80;;
2646;SDS011;1333;50.958;6.770;2023-04-29T05:22:11;19.73;;;11.17;;
2646;SDS011;1333;50.958;6.770;2023-04-29T05:24:37;28.77;;;11.70;;
2646;SDS011;1333;50.958;6.770;2023-04-29T05:27:02;18.97;;;10.30;;
2646;SDS011;1333;50.958;6.770;2023-04-29T05:29:28;20.47;;;12.00;;
2646;SDS011;1333;50.958;6.770;2023-04-29T05:31:54;22.30;;;10.30;;
2646;SDS011;1333;50.958;6.770;2023-04-29T05:34:19;17.40;;;10.80;;
2646;SDS011;1333;50.958;6.770;2023-04-29T05:36:45;18.53;;;10.83;;
2646;SDS011;1333;50.958;6.770;2023-04-29T05:39:11;15.80;;;10.70;;
2646;SDS011;1333;50.958;6.770;2023-04-29T05:41:36;14.93;;;8.10;;
2646;SDS011;1333;50.958;6.770;2023-04-29T05:44:02;17.50;;;10.80;;
2646;SDS011;1333;50.958;6.770;2023-04-29T05:46:27;11.10;;;7.73;;
2646;SDS011;1333;50.958;6.770;2023-04-29T05:48:53;15.30;;;9.17;;
2646;SDS011;1333;50.958;6.770;2023-04-29T05:51:18;14.17;;;8.57;;
2646;SDS011;1333;50.958;6.770;2023-04-29T05:53:44;13.40;;;9.30;;
2646;SDS011;1333;50.958;6.770;2023-04-29T05:56:09;14.07;;;8.17;;
2646;SDS011;1333;50.958;6.770;2023-04-29T05:58:35;16.17;;;8.17;;
2646;SDS011;1333;50.958;6.770;2023-04-29T06:01:01;12.60;;;8.07;;
2646;SDS011;1333;50.958;6.770;2023-04-29T06:03:27;13.03;;;9.13;;
2646;SDS011;1333;50.958;6.770;2023-04-29T06:05:53;14.93;;;8.03;;
2646;SDS011;1333;50.958;6.770;2023-04-29T06:08:19;14.83;;;8.60;;
2646;SDS011;1333;50.958;6.770;2023-04-29T06:10:45;12.83;;;7.87;;
2646;SDS011;1333;50.958;6.770;2023-04-29T06:13:11;15.30;;;7.50;;
2646;SDS011;1333;50.958;6.770;2023-04-29T06:15:36;10.27;;;6.57;;
2646;SDS011;1333;50.958;6.770;2023-04-29T06:18:02;13.20;;;8.30;;
2646;SDS011;1333;50.958;6.770;2023-04-29T06:20:28;12.40;;;7.20;;
2646;SDS011;1333;50.958;6.770;2023-04-29T06:22:53;10.83;;;7.10;;
2646;SDS011;1333;50.958;6.770;2023-04-29T06:25:19;18.00;;;8.30;;
2646;SDS011;1333;50.958;6.770;2023-04-29T06:27:44;12.13;;;8.20;;
2646;SDS011;1333;50.958;6.770;2023-04-29T06:30:10;13.50;;;7.70;;
2646;SDS011;1333;50.958;6.770;2023-04-29T06:32:37;15.17;;;8.73;;
2646;SDS011;1333;50.958;6.770;2023-04-29T06:35:03;13.87;;;8.50;;
2646;SDS011;1333;50.958;6.770;2023-04-29T06:37:29;14.13;;;8.60;;
2646;SDS011;1333;50.958;6.770;2023-04-29T06:39:54;12.83;;;8.60;;
2646;SDS011;1333;50.958;6.770;2023-04-29T06:42:20;12.80;;;8.80;;
2646;SDS011;1333;50.958;6.770;2023-04-29T06:44:45;14.20;;;9.60;;
2646;SDS011;1333;50.958;6.770;2023-04-29T06:47:11;21.20;;;10.20;;
2646;SDS011;1333;50.958;6.770;2023-04-29T06:49:37;10.47;;;7.30;;
2646;SDS011;1333;50.958;6.770;2023-04-29T06:52:02;18.53;;;8.63;;
2646;SDS011;1333;50.958;6.770;2023-04-29T06:54:28;14.33;;;8.17;;
2646;SDS011;1333;50.958;6.770;2023-04-29T06:56:53;15.67;;;10.80;;
2646;SDS011;1333;50.958;6.770;2023-04-29T06:59:19;15.03;;;9.00;;
2646;SDS011;1333;50.958;6.770;2023-04-29T07:01:44;16.47;;;9.87;;
2646;SDS011;1333;50.958;6.770;2023-04-29T07:04:10;17.43;;;9.23;;
2646;SDS011;1333;50.958;6.770;2023-04-29T07:06:36;13.87;;;8.30;;
2646;SDS011;1333;50.958;6.770;2023-04-29T07:09:02;15.37;;;9.37;;
2646;SDS011;1333;50.958;6.770;2023-04-29T07:11:27;13.60;;;9.00;;
2646;SDS011;1333;50.958;6.770;2023-04-29T07:13:53;13.27;;;9.27;;
2646;SDS011;1333;50.958;6.770;2023-04-29T07:16:19;10.20;;;7.73;;
2646;SDS011;1333;50.958;6.770;2023-04-29T07:18:46;11.33;;;7.57;;
2646;SDS011;1333;50.958;6.770;2023-04-29T07:21:14;11.73;;;8.90;;
2646;SDS011;1333;50.958;6.770;2023-04-29T07:23:40;13.73;;;8.33;;
2646;SDS011;1333;50.958;6.770;2023-04-29T07:26:09;12.33;;;8.80;;
2646;SDS011;1333;50.958;6.770;2023-04-29T07:28:35;12.77;;;8.57;;
2646;SDS011;1333;50.958;6.770;2023-04-29T07:31:01;11.87;;;8.07;;
2646;SDS011;1333;50.958;6.770;2023-04-29T07:33:26;11.63;;;7.90;;
2646;SDS011;1333;50.958;6.770;2023-04-29T07:35:52;12.07;;;7.30;;
2646;SDS011;1333;50.958;6.770;2023-04-29T07:38:18;9.80;;;7.27;;
2646;SDS011;1333;50.958;6.770;2023-04-29T07:40:45;11.00;;;8.37;;
2646;SDS011;1333;50.958;6.770;2023-04-29T07:43:10;9.33;;;7.97;;
2646;SDS011;1333;50.958;6.770;2023-04-29T07:45:37;10.83;;;7.27;;
2646;SDS011;1333;50.958;6.770;2023-04-29T07:48:03;10.43;;;6.93;;
2646;SDS011;1333;50.958;6.770;2023-04-29T07:50:30;10.07;;;7.17;;
2646;SDS011;1333;50.958;6.770;2023-04-29T07:52:58;12.00;;;8.37;;
2646;SDS011;1333;50.958;6.770;2023-04-29T07:55:25;11.50;;;7.43;;
2646;SDS011;1333;50.958;6.770;2023-04-29T07:57:53;11.30;;;7.97;;
2646;SDS011;1333;50.958;6.770;2023-04-29T08:00:20;8.40;;;6.50;;
2646;SDS011;1333;50.958;6.770;2023-04-29T08:02:45;11.60;;;7.73;;
2646;SDS011;1333;50.958;6.770;2023-04-29T08:05:14;9.80;;;7.27;;
2646;SDS011;1333;50.958;6.770;2023-04-29T08:07:39;12.60;;;7.33;;
2646;SDS011;1333;50.958;6.770;2023-04-29T08:10:05;10.67;;;7.73;;
2646;SDS011;1333;50.958;6.770;2023-04-29T08:12:31;8.23;;;6.30;;
2646;SDS011;1333;50.958;6.770;2023-04-29T08:14:56;7.90;;;6.10;;
2646;SDS011;1333;50.958;6.770;2023-04-29T08:17:22;9.03;;;6.13;;
2646;SDS011;1333;50.958;6.770;2023-04-29T08:19:48;11.17;;;6.70;;
2646;SDS011;1333;50.958;6.770;2023-04-29T08:22:13;12.43;;;7.87;;
2646;SDS011;1333;50.958;6.770;2023-04-29T08:24:39;15.90;;;7.00;;
2646;SDS011;1333;50.958;6.770;2023-04-29T08:27:06;10.97;;;7.10;;
2646;SDS011;1333;50.958;6.770;2023-04-29T08:29:32;10.33;;;6.20;;
2646;SDS011;1333;50.958;6.770;2023-04-29T08:31:58;11.03;;;7.43;;
2646;SDS011;1333;50.958;6.770;2023-04-29T08:34:24;14.70;;;7.03;;
2646;SDS011;1333;50.958;6.770;2023-04-29T08:36:49;11.70;;;7.50;;
2646;SDS011;1333;50.958;6.770;2023-04-29T08:39:15;12.10;;;6.93;;
2646;SDS011;1333;50.958;6.770;2023-04-29T08:41:40;11.10;;;7.20;;
2646;SDS011;1333;50.958;6.770;2023-04-29T08:44:09;11.40;;;7.40;;
2646;SDS011;1333;50.958;6.770;2023-04-29T08:46:35;9.83;;;6.53;;
2646;SDS011;1333;50.958;6.770;2023-04-29T08:49:01;8.67;;;6.17;;
2646;SDS011;1333;50.958;6.770;2023-04-29T08:51:27;7.27;;;6.47;;
2646;SDS011;1333;50.958;6.770;2023-04-29T08:53:55;8.17;;;5.40;;
2646;SDS011;1333;50.958;6.770;2023-04-29T08:56:20;9.33;;;5.60;;
2646;SDS011;1333;50.958;6.770;2023-04-29T08:58:48;9.77;;;6.53;;
2646;SDS011;1333;50.958;6.770;2023-04-29T09:01:18;8.13;;;5.13;;
2646;SDS011;1333;50.958;6.770;2023-04-29T09:03:46;8.33;;;5.17;;
2646;SDS011;1333;50.958;6.770;2023-04-29T09:06:18;8.10;;;5.93;;
2646;SDS011;1333;50.958;6.770;2023-04-29T09:08:45;7.20;;;5.00;;
2646;SDS011;1333;50.958;6.770;2023-04-29T09:11:11;6.30;;;5.33;;
2646;SDS011;1333;50.958;6.770;2023-04-29T09:13:37;12.83;;;5.60;;
2646;SDS011;1333;50.958;6.770;2023-04-29T09:16:03;6.97;;;5.30;;
2646;SDS011;1333;50.958;6.770;2023-04-29T09:18:43;7.30;;;5.43;;
2646;SDS011;1333;50.958;6.770;2023-04-29T09:21:11;6.97;;;5.80;;
2646;SDS011;1333;50.958;6.770;2023-04-29T09:23:43;8.30;;;5.60;;
2646;SDS011;1333;50.958;6.770;2023-04-29T09:26:10;7.50;;;5.47;;
2646;SDS011;1333;50.958;6.770;2023-04-29T09:28:36;8.57;;;5.50;;
2646;SDS011;1333;50.958;6.770;2023-04-29T09:31:03;8.00;;;5.67;;
2646;SDS011;1333;50.958;6.770;2023-04-29T09:33:30;6.30;;;4.67;;
2646;SDS011;1333;50.958;6.770;2023-04-29T09:35:56;7.50;;;5.80;;
2646;SDS011;1333;50.958;6.770;2023-04-29T09:38:22;6.77;;;5.47;;
2646;SDS011;1333;50.958;6.770;2023-04-29T09:40:47;7.03;;;5.40;;
2646;SDS011;1333;50.958;6.770;2023-04-29T09:43:15;8.90;;;6.23;;
2646;SDS011;1333;50.958;6.770;2023-04-29T09:45:44;8.40;;;6.23;;
2646;SDS011;1333;50.958;6.770;2023-04-29T09:48:11;8.60;;;5.60;;
2646;SDS011;1333;50.958;6.770;2023-04-29T09:50:39;9.97;;;6.00;;
2646;SDS011;1333;50.958;6.770;2023-04-29T09:53:06;8.20;;;6.60;;
2646;SDS011;1333;50.958;6.770;2023-04-29T09:58:38;7.80;;;5.80;;
2646;SDS011;1333;50.958;6.770;2023-04-29T10:01:04;9.10;;;5.60;;
2646;SDS011;1333;50.958;6.770;2023-04-29T10:03:31;8.07;;;6.13;;
2646;SDS011;1333;50.958;6.770;2023-04-29T10:06:01;9.70;;;6.50;;
2646;SDS011;1333;50.958;6.770;2023-04-29T10:08:27;7.30;;;6.60;;
2646;SDS011;1333;50.958;6.770;2023-04-29T10:10:54;9.60;;;6.37;;
2646;SDS011;1333;50.958;6.770;2023-04-29T10:13:23;8.93;;;6.40;;
2646;SDS011;1333;50.958;6.770;2023-04-29T10:15:51;12.97;;;6.33;;
2646;SDS011;1333;50.958;6.770;2023-04-29T10:18:29;10.00;;;6.63;;
2646;SDS011;1333;50.958;6.770;2023-04-29T10:21:01;7.23;;;5.50;;
2646;SDS011;1333;50.958;6.770;2023-04-29T10:23:30;10.00;;;6.27;;
2646;SDS011;1333;50.958;6.770;2023-04-29T10:25:58;8.00;;;5.87;;
2646;SDS011;1333;50.958;6.770;2023-04-29T10:28:28;7.87;;;6.60;;
2646;SDS011;1333;50.958;6.770;2023-04-29T10:30:56;8.80;;;6.67;;
2646;SDS011;1333;50.958;6.770;2023-04-29T10:33:28;8.03;;;6.40;;
2646;SDS011;1333;50.958;6.770;2023-04-29T10:35:55;8.77;;;7.40;;
2646;SDS011;1333;50.958;6.770;2023-04-29T10:38:40;9.33;;;8.20;;
2646;SDS011;1333;50.958;6.770;2023-04-29T10:41:12;14.37;;;8.53;;
2646;SDS011;1333;50.958;6.770;2023-04-29T10:43:43;12.50;;;8.23;;
2646;SDS011;1333;50.958;6.770;2023-04-29T10:46:17;11.50;;;8.57;;
2646;SDS011;1333;50.958;6.770;2023-04-29T10:48:56;13.00;;;8.23;;
2646;SDS011;1333;50.958;6.770;2023-04-29T10:51:28;11.43;;;7.87;;
2646;SDS011;1333;50.958;6.770;2023-04-29T10:54:12;14.57;;;9.27;;
2646;SDS011;1333;50.958;6.770;2023-04-29T10:56:47;10.60;;;7.30;;
2646;SDS011;1333;50.958;6.770;2023-04-29T10:59:22;16.70;;;9.03;;
2646;SDS011;1333;50.958;6.770;2023-04-29T11:02:06;13.63;;;9.27;;
2646;SDS011;1333;50.958;6.770;2023-04-29T11:04:34;12.80;;;9.20;;
2646;SDS011;1333;50.958;6.770;2023-04-29T11:07:26;13.73;;;8.70;;
2646;SDS011;1333;50.958;6.770;2023-04-29T11:09:53;15.47;;;9.53;;
2646;SDS011;1333;50.958;6.770;2023-04-29T11:12:19;14.27;;;9.57;;
2646;SDS011;1333;50.958;6.770;2023-04-29T11:14:49;16.10;;;9.70;;
2646;SDS011;1333;50.958;6.770;2023-04-29T11:17:15;13.13;;;9.53;;
2646;SDS011;1333;50.958;6.770;2023-04-29T11:19:44;16.67;;;10.73;;
2646;SDS011;1333;50.958;6.770;2023-04-29T11:27:22;15.77;;;10.57;;
2646;SDS011;1333;50.958;6.770;2023-04-29T11:29:52;16.03;;;10.80;;
2646;SDS011;1333;50.958;6.770;2023-04-29T11:32:22;15.27;;;10.27;;
2646;SDS011;1333;50.958;6.770;2023-04-29T11:34:52;14.93;;;10.73;;
2646;SDS011;1333;50.958;6.770;2023-04-29T11:37:24;17.57;;;12.03;;
2646;SDS011;1333;50.958;6.770;2023-04-29T11:39:51;19.90;;;12.87;;
2646;SDS011;1333;50.958;6.770;2023-04-29T11:42:25;20.60;;;12.50;;
2646;SDS011;1333;50.958;6.770;2023-04-29T11:44:51;18.47;;;12.70;;
2646;SDS011;1333;50.958;6.770;2023-04-29T11:47:18;20.83;;;14.00;;
2646;SDS011;1333;50.958;6.770;2023-04-29T11:49:45;27.00;;;16.40;;
2646;SDS011;1333;50.958;6.770;2023-04-29T11:52:11;23.30;;;15.40;;
2646;SDS011;1333;50.958;6.770;2023-04-29T11:54:37;24.07;;;15.60;;
2646;SDS011;1333;50.958;6.770;2023-04-29T11:57:02;24.60;;;16.60;;
2646;SDS011;1333;50.958;6.770;2023-04-29T11:59:29;31.57;;;18.13;;
2646;SDS011;1333;50.958;6.770;2023-04-29T12:01:56;30.77;;;18.53;;
2646;SDS011;1333;50.958;6.770;2023-04-29T12:04:24;31.00;;;17.93;;
2646;SDS011;1333;50.958;6.770;2023-04-29T12:06:55;37.80;;;22.47;;
2646;SDS011;1333;50.958;6.770;2023-04-29T12:09:22;44.80;;;23.87;;
2646;SDS011;1333;50.958;6.770;2023-04-29T12:11:48;34.23;;;25.07;;
2646;SDS011;1333;50.958;6.770;2023-04-29T12:14:16;31.03;;;19.90;;
2646;SDS011;1333;50.958;6.770;2023-04-29T12:16:42;30.53;;;18.07;;
2646;SDS011;1333;50.958;6.770;2023-04-29T12:19:10;26.23;;;17.10;;
2646;SDS011;1333;50.958;6.770;2023-04-29T12:21:37;27.93;;;19.33;;
2646;SDS011;1333;50.958;6.770;2023-04-29T12:24:12;33.40;;;16.63;;
2646;SDS011;1333;50.958;6.770;2023-04-29T12:26:39;30.53;;;17.90;;
2646;SDS011;1333;50.958;6.770;2023-04-29T12:29:05;36.57;;;20.20;;
2646;SDS011;1333;50.958;6.770;2023-04-29T12:31:34;29.13;;;16.63;;
2646;SDS011;1333;50.958;6.770;2023-04-29T12:34:01;35.93;;;19.10;;
2646;SDS011;1333;50.958;6.770;2023-04-29T12:36:27;31.80;;;20.77;;
2646;SDS011;1333;50.958;6.770;2023-04-29T12:38:53;30.93;;;19.80;;
2646;SDS011;1333;50.958;6.770;2023-04-29T12:41:34;36.10;;;20.17;;
2646;SDS011;1333;50.958;6.770;2023-04-29T12:44:09;30.50;;;17.67;;
2646;SDS011;1333;50.958;6.770;2023-04-29T12:46:38;29.70;;;18.07;;
2646;SDS011;1333;50.958;6.770;2023-04-29T12:49:05;34.57;;;19.27;;
2646;SDS011;1333;50.958;6.770;2023-04-29T12:51:34;37.73;;;20.83;;
2646;SDS011;1333;50.958;6.770;2023-04-29T12:54:01;32.97;;;21.60;;
2646;SDS011;1333;50.958;6.770;2023-04-29T12:56:28;29.47;;;18.80;;
2646;SDS011;1333;50.958;6.770;2023-04-29T12:58:55;25.23;;;17.27;;
2646;SDS011;1333;50.958;6.770;2023-04-29T13:01:20;30.23;;;19.30;;
2646;SDS011;1333;50.958;6.770;2023-04-29T13:03:46;25.87;;;19.80;;
2646;SDS011;1333;50.958;6.770;2023-04-29T13:06:13;23.10;;;17.00;;
2646;SDS011;1333;50.958;6.770;2023-04-29T13:08:39;27.97;;;18.97;;
2646;SDS011;1333;50.958;6.770;2023-04-29T13:11:05;27.47;;;17.73;;
2646;SDS011;1333;50.958;6.770;2023-04-29T13:13:31;26.33;;;18.80;;
2646;SDS011;1333;50.958;6.770;2023-04-29T13:15:57;29.80;;;19.00;;
2646;SDS011;1333;50.958;6.770;2023-04-29T13:18:24;28.40;;;18.57;;
2646;SDS011;1333;50.958;6.770;2023-04-29T13:20:50;27.60;;;17.97;;
2646;SDS011;1333;50.958;6.770;2023-04-29T13:23:15;25.23;;;18.90;;
2646;SDS011;1333;50.958;6.770;2023-04-29T13:25:41;28.40;;;18.27;;
2646;SDS011;1333;50.958;6.770;2023-04-29T13:28:06;23.00;;;17.03;;
2646;SDS011;1333;50.958;6.770;2023-04-29T13:30:32;29.90;;;18.77;;
2646;SDS011;1333;50.958;6.770;2023-04-29T13:32:57;23.90;;;19.27;;
2646;SDS011;1333;50.958;6.770;2023-04-29T13:35:23;31.50;;;19.00;;
2646;SDS011;1333;50.958;6.770;2023-04-29T13:37:48;26.23;;;17.37;;
2646;SDS011;1333;50.958;6.770;2023-04-29T13:40:14;25.07;;;18.90;;
2646;SDS011;1333;50.958;6.770;2023-04-29T13:42:40;22.20;;;15.83;;
2646;SDS011;1333;50.958;6.770;2023-04-29T13:45:06;26.03;;;18.60;;
2646;SDS011;1333;50.958;6.770;2023-04-29T13:47:31;23.13;;;16.07;;
2646;SDS011;1333;50.958;6.770;2023-04-29T13:49:57;28.27;;;16.57;;
2646;SDS011;1333;50.958;6.770;2023-04-29T13:52:22;21.97;;;16.07;;
2646;SDS011;1333;50.958;6.770;2023-04-29T13:54:48;19.30;;;15.37;;
2646;SDS011;1333;50.958;6.770;2023-04-29T13:57:14;16.70;;;12.43;;
2646;SDS011;1333;50.958;6.770;2023-04-29T13:59:40;18.37;;;11.93;;
2646;SDS011;1333;50.958;6.770;2023-04-29T14:02:05;13.57;;;11.97;;
2646;SDS011;1333;50.958;6.770;2023-04-29T14:04:31;15.40;;;12.20;;
2646;SDS011;1333;50.958;6.770;2023-04-29T14:06:57;17.67;;;12.60;;
2646;SDS011;1333;50.958;6.770;2023-04-29T14:09:22;17.53;;;14.20;;
2646;SDS011;1333;50.958;6.770;2023-04-29T14:11:48;17.90;;;11.27;;
2646;SDS011;1333;50.958;6.770;2023-04-29T14:14:14;18.00;;;12.80;;
2646;SDS011;1333;50.958;6.770;2023-04-29T14:16:40;16.30;;;12.53;;
2646;SDS011;1333;50.958;6.770;2023-04-29T14:19:06;15.73;;;11.37;;
2646;SDS011;1333;50.958;6.770;2023-04-29T14:21:31;15.70;;;11.90;;
2646;SDS011;1333;50.958;6.770;2023-04-29T14:23:58;14.80;;;10.73;;
2646;SDS011;1333;50.958;6.770;2023-04-29T14:26:24;19.73;;;14.70;;
2646;SDS011;1333;50.958;6.770;2023-04-29T14:28:50;19.00;;;13.67;;
2646;SDS011;1333;50.958;6.770;2023-04-29T14:31:21;17.73;;;13.73;;
2646;SDS011;1333;50.958;6.770;2023-04-29T14:33:48;20.00;;;13.87;;
2646;SDS011;1333;50.958;6.770;2023-04-29T14:36:15;19.63;;;14.13;;
2646;SDS011;1333;50.958;6.770;2023-04-29T14:38:40;15.80;;;13.13;;
2646;SDS011;1333;50.958;6.770;2023-04-29T14:41:06;17.63;;;14.10;;
2646;SDS011;1333;50.958;6.770;2023-04-29T14:43:31;15.70;;;12.43;;
2646;SDS011;1333;50.958;6.770;2023-04-29T14:45:57;21.50;;;13.13;;
2646;SDS011;1333;50.958;6.770;2023-04-29T14:48:22;16.27;;;13.33;;
2646;SDS011;1333;50.958;6.770;2023-04-29T14:50:48;16.40;;;13.60;;
2646;SDS011;1333;50.958;6.770;2023-04-29T14:53:14;19.30;;;13.70;;
2646;SDS011;1333;50.958;6.770;2023-04-29T14:55:39;19.73;;;14.30;;
2646;SDS011;1333;50.958;6.770;2023-04-29T14:58:05;17.97;;;13.37;;
2646;SDS011;1333;50.958;6.770;2023-04-29T15:00:32;17.80;;;13.40;;
2646;SDS011;1333;50.958;6.770;2023-04-29T15:02:58;19.93;;;14.43;;
2646;SDS011;1333;50.958;6.770;2023-04-29T15:05:23;22.00;;;13.00;;
2646;SDS011;1333;50.958;6.770;2023-04-29T15:07:49;16.57;;;13.53;;
2646;SDS011;1333;50.958;6.770;2023-04-29T15:10:15;17.20;;;13.37;;
2646;SDS011;1333;50.958;6.770;2023-04-29T15:12:40;26.23;;;16.57;;